sensor_id;sensor_type;location;lat;lon;timestamp;temperature;humidity
21255;DHT22;10785;50.674;17.954;2023-12-20T00:00:22;5.40;99.90
21255;DHT22;10785;50.674;17.954;2023-12-20T00:03:09;5.40;99.90
21255;DHT22;10785;50.674;17.954;2023-12-20T00:05:48;5.40;99.90
21255;DHT22;10785;50.674;17.954;2023-12-20T00:08:34;5.40;99.90
21255;DHT22;10785;50.674;17.954;2023-12-20T00:11:17;5.40;99.90
21255;DHT22;10785;50.674;17.954;2023-12-20T00:13:47;5.40;99.90
21255;DHT22;10785;50.674;17.954;2023-12-20T00:16:35;5.40;99.90
21255;DHT22;10785;50.674;17.954;2023-12-20T00:19:18;6.00;99.90
21255;DHT22;10785;50.674;17.954;2023-12-20T00:22:16;5.40;99.90
21255;DHT22;10785;50.674;17.954;2023-12-20T00:25:20;5.50;99.90
21255;DHT22;10785;50.674;17.954;2023-12-20T00:28:05;5.40;99.90
21255;DHT22;10785;50.674;17.954;2023-12-20T00:30:51;5.50;99.90
21255;DHT22;10785;50.674;17.954;2023-12-20T00:33:33;5.50;99.90
21255;DHT22;10785;50.674;17.954;2023-12-20T00:36:21;5.50;99.90
21255;DHT22;10785;50.674;17.954;2023-12-20T00:39:02;5.50;99.90
21255;DHT22;10785;50.674;17.954;2023-12-20T00:41:49;5.50;99.90
21255;DHT22;10785;50.674;17.954;2023-12-20T00:44:38;5.50;99.90
21255;DHT22;10785;50.674;17.954;2023-12-20T00:47:27;5.50;99.90
21255;DHT22;10785;50.674;17.954;2023-12-20T00:50:11;5.50;99.90
21255;DHT22;10785;50.674;17.954;2023-12-20T00:52:57;5.50;99.90
21255;DHT22;10785;50.674;17.954;2023-12-20T00:55:51;5.50;99.90
21255;DHT22;10785;50.674;17.954;2023-12-20T00:58:37;5.60;99.90
21255;DHT22;10785;50.674;17.954;2023-12-20T01:01:29;5.50;99.90
21255;DHT22;10785;50.674;17.954;2023-12-20T01:04:08;5.50;99.90
21255;DHT22;10785;50.674;17.954;2023-12-20T01:06:49;5.50;99.90
21255;DHT22;10785;50.674;17.954;2023-12-20T01:09:30;5.50;99.90
21255;DHT22;10785;50.674;17.954;2023-12-20T01:12:26;5.50;99.90
21255;DHT22;10785;50.674;17.954;2023-12-20T01:15:13;5.60;99.90
21255;DHT22;10785;50.674;17.954;2023-12-20T01:17:53;5.60;99.90
21255;DHT22;10785;50.674;17.954;2023-12-20T01:20:35;5.60;99.90
21255;DHT22;10785;50.674;17.954;2023-12-20T01:23:14;5.60;99.90
21255;DHT22;10785;50.674;17.954;2023-12-20T01:25:55;5.70;99.90
21255;DHT22;10785;50.674;17.954;2023-12-20T01:28:41;5.70;99.90
21255;DHT22;10785;50.674;17.954;2023-12-20T01:31:26;5.70;99.90
21255;DHT22;10785;50.674;17.954;2023-12-20T01:34:12;5.70;99.90
21255;DHT22;10785;50.674;17.954;2023-12-20T01:36:52;5.70;99.90
21255;DHT22;10785;50.674;17.954;2023-12-20T01:39:42;5.80;99.90
21255;DHT22;10785;50.674;17.954;2023-12-20T01:42:32;5.80;99.90
21255;DHT22;10785;50.674;17.954;2023-12-20T01:45:14;5.90;99.90
21255;DHT22;10785;50.674;17.954;2023-12-20T01:47:59;5.90;99.90
21255;DHT22;10785;50.674;17.954;2023-12-20T01:50:44;6.00;99.90
21255;DHT22;10785;50.674;17.954;2023-12-20T01:53:27;6.00;99.90
21255;DHT22;10785;50.674;17.954;2023-12-20T01:56:12;6.00;99.90
21255;DHT22;10785;50.674;17.954;2023-12-20T01:59:01;6.10;99.90
21255;DHT22;10785;50.674;17.954;2023-12-20T02:01:41;6.10;99.90
21255;DHT22;10785;50.674;17.954;2023-12-20T02:04:20;6.10;99.90
21255;DHT22;10785;50.674;17.954;2023-12-20T02:06:59;6.10;99.90
21255;DHT22;10785;50.674;17.954;2023-12-20T02:09:40;6.10;99.90
21255;DHT22;10785;50.674;17.954;2023-12-20T02:12:26;6.10;99.90
21255;DHT22;10785;50.674;17.954;2023-12-20T02:15:15;6.10;99.90
21255;DHT22;10785;50.674;17.954;2023-12-20T02:17:59;6.10;99.90
21255;DHT22;10785;50.674;17.954;2023-12-20T02:20:39;6.10;99.90
21255;DHT22;10785;50.674;17.954;2023-12-20T02:23:33;6.00;99.90
21255;DHT22;10785;50.674;17.954;2023-12-20T02:26:17;6.00;99.90
21255;DHT22;10785;50.674;17.954;2023-12-20T02:28:55;6.00;99.90
21255;DHT22;10785;50.674;17.954;2023-12-20T02:31:33;6.00;99.90
21255;DHT22;10785;50.674;17.954;2023-12-20T02:34:21;5.90;99.90
21255;DHT22;10785;50.674;17.954;2023-12-20T02:37:09;5.90;99.90
21255;DHT22;10785;50.674;17.954;2023-12-20T02:39:56;5.90;99.90
21255;DHT22;10785;50.674;17.954;2023-12-20T02:42:42;5.90;99.90
21255;DHT22;10785;50.674;17.954;2023-12-20T02:45:30;5.80;99.90
21255;DHT22;10785;50.674;17.954;2023-12-20T02:48:03;5.80;99.90
21255;DHT22;10785;50.674;17.954;2023-12-20T02:50:42;5.80;99.90
21255;DHT22;10785;50.674;17.954;2023-12-20T02:53:30;4.70;99.90
21255;DHT22;10785;50.674;17.954;2023-12-20T02:56:13;5.70;99.90
21255;DHT22;10785;50.674;17.954;2023-12-20T02:58:57;5.70;99.90
21255;DHT22;10785;50.674;17.954;2023-12-20T03:01:44;5.70;99.90
21255;DHT22;10785;50.674;17.954;2023-12-20T03:04:16;5.60;99.90
21255;DHT22;10785;50.674;17.954;2023-12-20T03:06:58;5.80;99.90
21255;DHT22;10785;50.674;17.954;2023-12-20T03:09:42;5.60;99.90
21255;DHT22;10785;50.674;17.954;2023-12-20T03:12:48;5.60;99.90
21255;DHT22;10785;50.674;17.954;2023-12-20T03:15:36;5.50;99.90
21255;DHT22;10785;50.674;17.954;2023-12-20T03:18:10;5.50;99.90
21255;DHT22;10785;50.674;17.954;2023-12-20T03:20:57;5.50;99.90
21255;DHT22;10785;50.674;17.954;2023-12-20T03:23:51;5.50;99.90
21255;DHT22;10785;50.674;17.954;2023-12-20T03:26:35;5.40;99.90
21255;DHT22;10785;50.674;17.954;2023-12-20T03:29:21;5.40;99.90
21255;DHT22;10785;50.674;17.954;2023-12-20T03:32:00;5.40;99.90
21255;DHT22;10785;50.674;17.954;2023-12-20T03:34:39;5.40;99.90
21255;DHT22;10785;50.674;17.954;2023-12-20T03:37:10;5.40;99.90
21255;DHT22;10785;50.674;17.954;2023-12-20T03:39:46;5.40;99.90
21255;DHT22;10785;50.674;17.954;2023-12-20T03:42:30;5.40;99.90
21255;DHT22;10785;50.674;17.954;2023-12-20T03:45:13;5.30;99.90
21255;DHT22;10785;50.674;17.954;2023-12-20T03:47:54;5.40;99.90
21255;DHT22;10785;50.674;17.954;2023-12-20T03:50:37;5.40;99.90
21255;DHT22;10785;50.674;17.954;2023-12-20T03:53:25;5.40;99.90
21255;DHT22;10785;50.674;17.954;2023-12-20T03:56:08;5.40;99.90
21255;DHT22;10785;50.674;17.954;2023-12-20T03:58:54;5.40;99.90
21255;DHT22;10785;50.674;17.954;2023-12-20T04:01:43;5.40;99.90
21255;DHT22;10785;50.674;17.954;2023-12-20T04:04:22;5.40;99.90
21255;DHT22;10785;50.674;17.954;2023-12-20T04:07:09;5.40;99.90
21255;DHT22;10785;50.674;17.954;2023-12-20T04:09:55;5.30;99.90
21255;DHT22;10785;50.674;17.954;2023-12-20T04:12:40;5.30;99.90
21255;DHT22;10785;50.674;17.954;2023-12-20T04:15:21;5.30;99.90
21255;DHT22;10785;50.674;17.954;2023-12-20T04:18:16;5.30;99.90
21255;DHT22;10785;50.674;17.954;2023-12-20T04:20:55;5.30;99.90
21255;DHT22;10785;50.674;17.954;2023-12-20T04:23:42;5.40;99.90
21255;DHT22;10785;50.674;17.954;2023-12-20T04:26:29;3.40;99.90
21255;DHT22;10785;50.674;17.954;2023-12-20T04:29:16;5.30;99.90
21255;DHT22;10785;50.674;17.954;2023-12-20T04:32:05;5.30;99.90
21255;DHT22;10785;50.674;17.954;2023-12-20T04:34:58;5.40;99.90
21255;DHT22;10785;50.674;17.954;2023-12-20T04:37:39;5.40;99.90
21255;DHT22;10785;50.674;17.954;2023-12-20T04:40:21;5.40;99.90
21255;DHT22;10785;50.674;17.954;2023-12-20T04:43:06;5.40;99.90
21255;DHT22;10785;50.674;17.954;2023-12-20T04:45:49;5.40;99.90
21255;DHT22;10785;50.674;17.954;2023-12-20T04:48:38;5.40;99.90
21255;DHT22;10785;50.674;17.954;2023-12-20T04:51:28;5.60;99.90
21255;DHT22;10785;50.674;17.954;2023-12-20T04:54:16;5.40;99.90
21255;DHT22;10785;50.674;17.954;2023-12-20T04:56:59;5.30;99.90
21255;DHT22;10785;50.674;17.954;2023-12-20T04:59:44;5.40;99.90
21255;DHT22;10785;50.674;17.954;2023-12-20T05:02:20;5.30;99.90
21255;DHT22;10785;50.674;17.954;2023-12-20T05:04:49;5.30;99.90
21255;DHT22;10785;50.674;17.954;2023-12-20T05:07:23;5.30;99.90
21255;DHT22;10785;50.674;17.954;2023-12-20T05:10:00;5.30;99.90
21255;DHT22;10785;50.674;17.954;2023-12-20T05:12:30;5.20;99.90
21255;DHT22;10785;50.674;17.954;2023-12-20T05:14:59;5.30;99.90
21255;DHT22;10785;50.674;17.954;2023-12-20T05:17:32;5.30;99.90
21255;DHT22;10785;50.674;17.954;2023-12-20T05:20:01;5.30;99.90
21255;DHT22;10785;50.674;17.954;2023-12-20T05:22:32;5.30;99.90
21255;DHT22;10785;50.674;17.954;2023-12-20T05:25:08;5.30;99.90
21255;DHT22;10785;50.674;17.954;2023-12-20T05:27:38;5.30;99.90
21255;DHT22;10785;50.674;17.954;2023-12-20T05:30:08;5.20;99.90
21255;DHT22;10785;50.674;17.954;2023-12-20T05:32:38;5.20;99.90
21255;DHT22;10785;50.674;17.954;2023-12-20T05:35:08;5.20;99.90
21255;DHT22;10785;50.674;17.954;2023-12-20T05:37:39;5.20;99.90
21255;DHT22;10785;50.674;17.954;2023-12-20T05:40:12;5.40;99.90
21255;DHT22;10785;50.674;17.954;2023-12-20T05:42:46;5.30;99.90
21255;DHT22;10785;50.674;17.954;2023-12-20T05:45:15;5.20;99.90
21255;DHT22;10785;50.674;17.954;2023-12-20T05:47:44;5.20;99.90
21255;DHT22;10785;50.674;17.954;2023-12-20T05:50:14;5.20;99.90
21255;DHT22;10785;50.674;17.954;2023-12-20T05:52:47;5.20;99.90
21255;DHT22;10785;50.674;17.954;2023-12-20T05:55:17;5.20;99.90
21255;DHT22;10785;50.674;17.954;2023-12-20T05:57:47;5.20;99.90
21255;DHT22;10785;50.674;17.954;2023-12-20T06:00:22;5.20;99.90
21255;DHT22;10785;50.674;17.954;2023-12-20T06:03:05;5.20;99.90
21255;DHT22;10785;50.674;17.954;2023-12-20T06:05:46;5.20;99.90
21255;DHT22;10785;50.674;17.954;2023-12-20T06:08:48;5.20;99.90
21255;DHT22;10785;50.674;17.954;2023-12-20T06:11:29;5.20;99.90
21255;DHT22;10785;50.674;17.954;2023-12-20T06:14:05;5.20;99.90
21255;DHT22;10785;50.674;17.954;2023-12-20T06:16:41;5.20;99.90
21255;DHT22;10785;50.674;17.954;2023-12-20T06:19:25;5.20;99.90
21255;DHT22;10785;50.674;17.954;2023-12-20T06:22:09;5.10;99.90
21255;DHT22;10785;50.674;17.954;2023-12-20T06:25:00;5.10;99.90
21255;DHT22;10785;50.674;17.954;2023-12-20T06:27:50;5.10;99.90
21255;DHT22;10785;50.674;17.954;2023-12-20T06:30:38;5.10;99.90
21255;DHT22;10785;50.674;17.954;2023-12-20T06:33:28;5.10;99.90
21255;DHT22;10785;50.674;17.954;2023-12-20T06:36:13;5.10;99.90
21255;DHT22;10785;50.674;17.954;2023-12-20T06:39:01;5.10;99.90
21255;DHT22;10785;50.674;17.954;2023-12-20T06:41:57;5.10;99.90
21255;DHT22;10785;50.674;17.954;2023-12-20T06:44:43;5.10;99.90
21255;DHT22;10785;50.674;17.954;2023-12-20T06:47:19;5.00;99.90
21255;DHT22;10785;50.674;17.954;2023-12-20T06:50:10;5.00;99.90
21255;DHT22;10785;50.674;17.954;2023-12-20T06:52:58;5.00;99.90
21255;DHT22;10785;50.674;17.954;2023-12-20T06:55:48;7.20;99.90
21255;DHT22;10785;50.674;17.954;2023-12-20T06:58:42;5.00;99.90
21255;DHT22;10785;50.674;17.954;2023-12-20T07:01:37;5.00;99.90
21255;DHT22;10785;50.674;17.954;2023-12-20T07:04:38;5.00;99.90
21255;DHT22;10785;50.674;17.954;2023-12-20T07:07:18;5.00;99.90
21255;DHT22;10785;50.674;17.954;2023-12-20T07:10:07;5.00;99.90
21255;DHT22;10785;50.674;17.954;2023-12-20T07:12:48;5.00;99.90
21255;DHT22;10785;50.674;17.954;2023-12-20T07:15:33;5.00;99.90
21255;DHT22;10785;50.674;17.954;2023-12-20T07:18:19;4.90;99.90
21255;DHT22;10785;50.674;17.954;2023-12-20T07:21:06;4.90;99.90
21255;DHT22;10785;50.674;17.954;2023-12-20T07:24:01;4.90;99.90
21255;DHT22;10785;50.674;17.954;2023-12-20T07:26:50;4.90;99.90
21255;DHT22;10785;50.674;17.954;2023-12-20T07:29:38;4.90;99.90
21255;DHT22;10785;50.674;17.954;2023-12-20T07:32:35;4.90;99.90
21255;DHT22;10785;50.674;17.954;2023-12-20T07:35:27;4.90;99.90
21255;DHT22;10785;50.674;17.954;2023-12-20T07:38:08;4.90;99.90
21255;DHT22;10785;50.674;17.954;2023-12-20T07:40:43;4.90;99.90
21255;DHT22;10785;50.674;17.954;2023-12-20T07:43:12;4.90;99.90
21255;DHT22;10785;50.674;17.954;2023-12-20T07:45:44;4.90;99.90
21255;DHT22;10785;50.674;17.954;2023-12-20T07:48:33;4.90;99.90
21255;DHT22;10785;50.674;17.954;2023-12-20T07:51:26;4.90;99.90
21255;DHT22;10785;50.674;17.954;2023-12-20T07:54:15;4.90;99.90
21255;DHT22;10785;50.674;17.954;2023-12-20T07:57:05;4.90;99.90
21255;DHT22;10785;50.674;17.954;2023-12-20T07:59:53;4.90;99.90
21255;DHT22;10785;50.674;17.954;2023-12-20T08:02:38;4.90;99.90
21255;DHT22;10785;50.674;17.954;2023-12-20T08:05:30;4.90;99.90
21255;DHT22;10785;50.674;17.954;2023-12-20T08:08:16;4.90;99.90
21255;DHT22;10785;50.674;17.954;2023-12-20T08:11:01;4.90;99.90
21255;DHT22;10785;50.674;17.954;2023-12-20T08:13:45;4.90;99.90
21255;DHT22;10785;50.674;17.954;2023-12-20T08:16:42;4.80;99.90
21255;DHT22;10785;50.674;17.954;2023-12-20T08:19:29;4.90;99.90
21255;DHT22;10785;50.674;17.954;2023-12-20T08:22:16;4.90;99.90
21255;DHT22;10785;50.674;17.954;2023-12-20T08:25:02;4.90;99.90
21255;DHT22;10785;50.674;17.954;2023-12-20T08:27:44;4.80;99.90
21255;DHT22;10785;50.674;17.954;2023-12-20T08:30:28;4.90;99.90
21255;DHT22;10785;50.674;17.954;2023-12-20T08:36:05;4.90;99.90
21255;DHT22;10785;50.674;17.954;2023-12-20T08:38:55;4.80;99.90
21255;DHT22;10785;50.674;17.954;2023-12-20T08:41:50;4.90;99.90
21255;DHT22;10785;50.674;17.954;2023-12-20T08:44:41;4.90;99.90
21255;DHT22;10785;50.674;17.954;2023-12-20T08:47:26;4.90;99.90
21255;DHT22;10785;50.674;17.954;2023-12-20T08:50:15;4.90;99.90
21255;DHT22;10785;50.674;17.954;2023-12-20T08:53:02;5.40;99.90
21255;DHT22;10785;50.674;17.954;2023-12-20T08:55:56;4.90;99.90
21255;DHT22;10785;50.674;17.954;2023-12-20T08:58:48;4.90;99.90
21255;DHT22;10785;50.674;17.954;2023-12-20T09:01:26;5.00;99.90
21255;DHT22;10785;50.674;17.954;2023-12-20T09:04:09;5.00;99.90
21255;DHT22;10785;50.674;17.954;2023-12-20T09:07:00;5.00;99.90
21255;DHT22;10785;50.674;17.954;2023-12-20T09:09:38;5.10;99.90
21255;DHT22;10785;50.674;17.954;2023-12-20T09:12:25;5.10;99.90
21255;DHT22;10785;50.674;17.954;2023-12-20T09:15:10;5.10;99.90
21255;DHT22;10785;50.674;17.954;2023-12-20T09:18:03;5.10;99.90
21255;DHT22;10785;50.674;17.954;2023-12-20T09:20:41;5.20;99.90
21255;DHT22;10785;50.674;17.954;2023-12-20T09:23:25;5.20;99.90
21255;DHT22;10785;50.674;17.954;2023-12-20T09:26:06;5.10;99.90
21255;DHT22;10785;50.674;17.954;2023-12-20T09:28:51;5.20;99.90
21255;DHT22;10785;50.674;17.954;2023-12-20T09:31:38;5.20;99.90
21255;DHT22;10785;50.674;17.954;2023-12-20T09:34:27;4.70;99.90
21255;DHT22;10785;50.674;17.954;2023-12-20T09:37:26;5.20;99.90
21255;DHT22;10785;50.674;17.954;2023-12-20T09:40:27;5.10;99.90
21255;DHT22;10785;50.674;17.954;2023-12-20T09:43:15;5.20;99.90
21255;DHT22;10785;50.674;17.954;2023-12-20T09:46:17;5.30;99.90
21255;DHT22;10785;50.674;17.954;2023-12-20T09:49:10;5.30;99.90
21255;DHT22;10785;50.674;17.954;2023-12-20T09:51:55;5.30;99.90
21255;DHT22;10785;50.674;17.954;2023-12-20T09:54:44;5.30;99.90
21255;DHT22;10785;50.674;17.954;2023-12-20T09:57:21;5.30;99.90
21255;DHT22;10785;50.674;17.954;2023-12-20T10:00:09;5.40;99.90
21255;DHT22;10785;50.674;17.954;2023-12-20T10:02:57;5.40;99.90
21255;DHT22;10785;50.674;17.954;2023-12-20T10:05:34;5.40;99.90
21255;DHT22;10785;50.674;17.954;2023-12-20T10:08:14;5.40;99.90
21255;DHT22;10785;50.674;17.954;2023-12-20T10:10:56;5.40;99.90
21255;DHT22;10785;50.674;17.954;2023-12-20T10:13:48;5.40;99.90
21255;DHT22;10785;50.674;17.954;2023-12-20T10:16:34;5.40;99.90
21255;DHT22;10785;50.674;17.954;2023-12-20T10:19:25;5.40;99.90
21255;DHT22;10785;50.674;17.954;2023-12-20T10:22:08;5.40;99.90
21255;DHT22;10785;50.674;17.954;2023-12-20T10:24:57;5.40;99.90
21255;DHT22;10785;50.674;17.954;2023-12-20T10:27:46;5.40;99.90
21255;DHT22;10785;50.674;17.954;2023-12-20T10:30:31;5.40;99.90
21255;DHT22;10785;50.674;17.954;2023-12-20T10:33:28;5.30;99.90
21255;DHT22;10785;50.674;17.954;2023-12-20T10:36:23;5.30;99.90
21255;DHT22;10785;50.674;17.954;2023-12-20T10:39:11;5.30;99.90
21255;DHT22;10785;50.674;17.954;2023-12-20T10:41:58;5.30;99.90
21255;DHT22;10785;50.674;17.954;2023-12-20T10:44:39;5.40;99.90
21255;DHT22;10785;50.674;17.954;2023-12-20T10:47:23;5.40;99.90
21255;DHT22;10785;50.674;17.954;2023-12-20T10:50:09;5.40;99.90
21255;DHT22;10785;50.674;17.954;2023-12-20T10:53:00;5.40;99.90
21255;DHT22;10785;50.674;17.954;2023-12-20T10:55:44;5.40;99.90
21255;DHT22;10785;50.674;17.954;2023-12-20T10:58:33;5.50;99.90
21255;DHT22;10785;50.674;17.954;2023-12-20T11:01:23;5.60;99.90
21255;DHT22;10785;50.674;17.954;2023-12-20T11:04:10;5.80;99.90
21255;DHT22;10785;50.674;17.954;2023-12-20T11:07:03;5.80;99.90
21255;DHT22;10785;50.674;17.954;2023-12-20T11:10:14;5.90;99.90
21255;DHT22;10785;50.674;17.954;2023-12-20T11:13:10;6.00;99.90
21255;DHT22;10785;50.674;17.954;2023-12-20T11:16:04;6.20;99.90
21255;DHT22;10785;50.674;17.954;2023-12-20T11:18:50;6.30;99.90
21255;DHT22;10785;50.674;17.954;2023-12-20T11:21:35;6.30;99.90
21255;DHT22;10785;50.674;17.954;2023-12-20T11:24:22;6.40;99.90
21255;DHT22;10785;50.674;17.954;2023-12-20T11:27:12;6.40;99.90
21255;DHT22;10785;50.674;17.954;2023-12-20T11:32:55;6.40;99.90
21255;DHT22;10785;50.674;17.954;2023-12-20T11:35:38;6.30;99.90
21255;DHT22;10785;50.674;17.954;2023-12-20T11:38:16;6.40;99.90
21255;DHT22;10785;50.674;17.954;2023-12-20T11:41:08;6.40;99.90
21255;DHT22;10785;50.674;17.954;2023-12-20T11:44:00;6.40;99.90
21255;DHT22;10785;50.674;17.954;2023-12-20T11:46:46;6.40;99.90
21255;DHT22;10785;50.674;17.954;2023-12-20T11:49:30;6.30;99.90
21255;DHT22;10785;50.674;17.954;2023-12-20T11:52:20;6.20;99.90
21255;DHT22;10785;50.674;17.954;2023-12-20T11:55:06;6.20;99.90
21255;DHT22;10785;50.674;17.954;2023-12-20T11:58:02;6.40;99.90
21255;DHT22;10785;50.674;17.954;2023-12-20T12:01:01;6.20;99.90
21255;DHT22;10785;50.674;17.954;2023-12-20T12:03:46;6.10;99.90
21255;DHT22;10785;50.674;17.954;2023-12-20T12:06:34;6.10;99.90
21255;DHT22;10785;50.674;17.954;2023-12-20T12:09:24;6.00;99.90
21255;DHT22;10785;50.674;17.954;2023-12-20T12:12:16;5.90;99.90
21255;DHT22;10785;50.674;17.954;2023-12-20T12:15:12;6.00;99.90
21255;DHT22;10785;50.674;17.954;2023-12-20T12:18:05;6.10;99.90
21255;DHT22;10785;50.674;17.954;2023-12-20T12:21:05;6.20;99.90
21255;DHT22;10785;50.674;17.954;2023-12-20T12:24:10;6.30;99.90
21255;DHT22;10785;50.674;17.954;2023-12-20T12:26:56;6.40;99.90
21255;DHT22;10785;50.674;17.954;2023-12-20T12:32:51;6.50;99.90
21255;DHT22;10785;50.674;17.954;2023-12-20T12:35:43;6.40;99.90
21255;DHT22;10785;50.674;17.954;2023-12-20T12:38:28;6.40;99.90
21255;DHT22;10785;50.674;17.954;2023-12-20T12:41:20;6.20;99.90
21255;DHT22;10785;50.674;17.954;2023-12-20T12:44:03;6.10;99.90
21255;DHT22;10785;50.674;17.954;2023-12-20T12:46:57;6.10;99.90
21255;DHT22;10785;50.674;17.954;2023-12-20T12:49:47;6.00;99.90
21255;DHT22;10785;50.674;17.954;2023-12-20T12:52:30;6.00;99.90
21255;DHT22;10785;50.674;17.954;2023-12-20T12:55:16;6.00;99.90
21255;DHT22;10785;50.674;17.954;2023-12-20T12:58:02;6.10;99.90
21255;DHT22;10785;50.674;17.954;2023-12-20T13:00:43;6.30;99.90
21255;DHT22;10785;50.674;17.954;2023-12-20T13:03:35;6.30;99.90
21255;DHT22;10785;50.674;17.954;2023-12-20T13:06:14;6.40;99.90
21255;DHT22;10785;50.674;17.954;2023-12-20T13:09:01;6.50;99.90
21255;DHT22;10785;50.674;17.954;2023-12-20T13:11:46;6.50;99.90
21255;DHT22;10785;50.674;17.954;2023-12-20T13:14:26;6.60;99.90
21255;DHT22;10785;50.674;17.954;2023-12-20T13:17:15;6.60;99.90
21255;DHT22;10785;50.674;17.954;2023-12-20T13:20:05;6.60;99.90
21255;DHT22;10785;50.674;17.954;2023-12-20T13:22:47;6.60;99.90
21255;DHT22;10785;50.674;17.954;2023-12-20T13:25:38;6.50;99.90
21255;DHT22;10785;50.674;17.954;2023-12-20T13:28:23;6.50;99.90
21255;DHT22;10785;50.674;17.954;2023-12-20T13:31:14;6.50;99.90
21255;DHT22;10785;50.674;17.954;2023-12-20T13:33:54;6.60;99.90
21255;DHT22;10785;50.674;17.954;2023-12-20T13:37:09;6.50;99.90
21255;DHT22;10785;50.674;17.954;2023-12-20T13:39:56;6.60;99.90
21255;DHT22;10785;50.674;17.954;2023-12-20T13:42:43;6.60;99.90
21255;DHT22;10785;50.674;17.954;2023-12-20T13:45:35;6.50;99.90
21255;DHT22;10785;50.674;17.954;2023-12-20T13:48:31;6.50;99.90
21255;DHT22;10785;50.674;17.954;2023-12-20T13:51:15;6.50;99.90
21255;DHT22;10785;50.674;17.954;2023-12-20T13:54:01;6.50;99.90
21255;DHT22;10785;50.674;17.954;2023-12-20T13:56:43;6.40;99.90
21255;DHT22;10785;50.674;17.954;2023-12-20T13:59:50;6.40;99.90
21255;DHT22;10785;50.674;17.954;2023-12-20T14:02:43;6.40;99.90
21255;DHT22;10785;50.674;17.954;2023-12-20T14:05:27;6.40;99.90
21255;DHT22;10785;50.674;17.954;2023-12-20T14:08:34;6.50;93.90
21255;DHT22;10785;50.674;17.954;2023-12-20T14:11:29;6.40;56.80
21255;DHT22;10785;50.674;17.954;2023-12-20T14:14:04;6.50;18.30
21255;DHT22;10785;50.674;17.954;2023-12-20T14:17:13;6.50;1.00
21255;DHT22;10785;50.674;17.954;2023-12-20T14:20:04;6.40;1.00
21255;DHT22;10785;50.674;17.954;2023-12-20T14:22:58;6.40;1.00
21255;DHT22;10785;50.674;17.954;2023-12-20T14:25:44;6.40;1.00
21255;DHT22;10785;50.674;17.954;2023-12-20T14:28:30;6.40;1.00
21255;DHT22;10785;50.674;17.954;2023-12-20T14:31:11;6.40;99.90
21255;DHT22;10785;50.674;17.954;2023-12-20T14:33:57;6.40;99.90
21255;DHT22;10785;50.674;17.954;2023-12-20T14:36:50;6.40;1.00
21255;DHT22;10785;50.674;17.954;2023-12-20T14:39:36;6.40;1.00
21255;DHT22;10785;50.674;17.954;2023-12-20T14:42:17;6.40;1.00
21255;DHT22;10785;50.674;17.954;2023-12-20T14:45:05;6.40;99.90
21255;DHT22;10785;50.674;17.954;2023-12-20T14:47:45;6.40;99.90
21255;DHT22;10785;50.674;17.954;2023-12-20T14:50:32;7.10;1.00
21255;DHT22;10785;50.674;17.954;2023-12-20T14:53:21;6.50;1.00
21255;DHT22;10785;50.674;17.954;2023-12-20T14:56:06;6.50;1.00
21255;DHT22;10785;50.674;17.954;2023-12-20T14:58:51;6.50;1.00
21255;DHT22;10785;50.674;17.954;2023-12-20T15:01:40;6.40;1.00
21255;DHT22;10785;50.674;17.954;2023-12-20T15:04:19;6.40;1.00
21255;DHT22;10785;50.674;17.954;2023-12-20T15:07:15;6.30;1.00
21255;DHT22;10785;50.674;17.954;2023-12-20T15:10:05;6.40;1.00
21255;DHT22;10785;50.674;17.954;2023-12-20T15:12:58;6.30;1.00
21255;DHT22;10785;50.674;17.954;2023-12-20T15:15:44;6.30;1.00
21255;DHT22;10785;50.674;17.954;2023-12-20T15:18:31;6.30;1.00
21255;DHT22;10785;50.674;17.954;2023-12-20T15:21:21;6.30;1.00
21255;DHT22;10785;50.674;17.954;2023-12-20T15:24:17;6.20;1.00
21255;DHT22;10785;50.674;17.954;2023-12-20T15:27:17;6.20;1.00
21255;DHT22;10785;50.674;17.954;2023-12-20T15:30:01;6.20;1.00
21255;DHT22;10785;50.674;17.954;2023-12-20T15:32:53;6.10;1.00
21255;DHT22;10785;50.674;17.954;2023-12-20T15:35:45;6.30;1.00
21255;DHT22;10785;50.674;17.954;2023-12-20T15:38:33;6.00;1.00
21255;DHT22;10785;50.674;17.954;2023-12-20T15:41:21;5.90;1.00
21255;DHT22;10785;50.674;17.954;2023-12-20T15:44:00;5.90;1.00
21255;DHT22;10785;50.674;17.954;2023-12-20T15:46:39;5.90;1.00
21255;DHT22;10785;50.674;17.954;2023-12-20T15:49:16;5.90;1.00
21255;DHT22;10785;50.674;17.954;2023-12-20T15:51:50;5.90;1.00
21255;DHT22;10785;50.674;17.954;2023-12-20T15:54:20;6.00;1.00
21255;DHT22;10785;50.674;17.954;2023-12-20T15:56:52;5.80;1.00
21255;DHT22;10785;50.674;17.954;2023-12-20T15:59:25;5.80;1.00
21255;DHT22;10785;50.674;17.954;2023-12-20T16:01:54;4.40;1.00
21255;DHT22;10785;50.674;17.954;2023-12-20T16:04:24;5.80;1.00
21255;DHT22;10785;50.674;17.954;2023-12-20T16:06:57;5.70;1.00
21255;DHT22;10785;50.674;17.954;2023-12-20T16:09:27;5.70;1.00
21255;DHT22;10785;50.674;17.954;2023-12-20T16:11:59;5.70;1.00
21255;DHT22;10785;50.674;17.954;2023-12-20T16:14:30;5.80;1.00
21255;DHT22;10785;50.674;17.954;2023-12-20T16:17:00;5.80;1.00
21255;DHT22;10785;50.674;17.954;2023-12-20T16:19:28;5.80;1.00
21255;DHT22;10785;50.674;17.954;2023-12-20T16:21:58;5.80;1.00
21255;DHT22;10785;50.674;17.954;2023-12-20T16:24:30;5.90;99.90
21255;DHT22;10785;50.674;17.954;2023-12-20T16:27:04;6.00;99.90
21255;DHT22;10785;50.674;17.954;2023-12-20T16:29:33;5.90;99.90
21255;DHT22;10785;50.674;17.954;2023-12-20T16:32:04;5.90;99.90
21255;DHT22;10785;50.674;17.954;2023-12-20T16:34:34;5.90;99.90
21255;DHT22;10785;50.674;17.954;2023-12-20T16:37:04;5.90;99.90
21255;DHT22;10785;50.674;17.954;2023-12-20T16:39:34;6.10;99.90
21255;DHT22;10785;50.674;17.954;2023-12-20T16:42:06;6.00;99.90
21255;DHT22;10785;50.674;17.954;2023-12-20T16:44:36;6.00;64.80
21255;DHT22;10785;50.674;17.954;2023-12-20T16:47:06;6.00;1.00
21255;DHT22;10785;50.674;17.954;2023-12-20T16:49:35;6.00;27.70
21255;DHT22;10785;50.674;17.954;2023-12-20T16:52:05;6.00;1.00
21255;DHT22;10785;50.674;17.954;2023-12-20T16:54:35;6.00;1.00
21255;DHT22;10785;50.674;17.954;2023-12-20T16:57:07;6.00;1.00
21255;DHT22;10785;50.674;17.954;2023-12-20T16:59:35;6.00;1.00
21255;DHT22;10785;50.674;17.954;2023-12-20T17:02:05;6.00;1.00
21255;DHT22;10785;50.674;17.954;2023-12-20T17:04:35;6.50;1.00
21255;DHT22;10785;50.674;17.954;2023-12-20T17:07:07;6.00;1.00
21255;DHT22;10785;50.674;17.954;2023-12-20T17:09:38;6.00;1.00
21255;DHT22;10785;50.674;17.954;2023-12-20T17:12:09;6.00;1.00
21255;DHT22;10785;50.674;17.954;2023-12-20T17:14:42;6.00;1.00
21255;DHT22;10785;50.674;17.954;2023-12-20T17:17:18;6.00;1.00
21255;DHT22;10785;50.674;17.954;2023-12-20T17:19:49;7.90;1.00
21255;DHT22;10785;50.674;17.954;2023-12-20T17:22:21;6.20;1.00
21255;DHT22;10785;50.674;17.954;2023-12-20T17:24:52;6.00;1.00
21255;DHT22;10785;50.674;17.954;2023-12-20T17:27:25;6.00;1.00